createdAt,value
2019-02-28T00:00:59.756Z,4.714355
2019-02-28T00:02:09.262Z,4.744568
2019-02-28T00:03:20.405Z,4.804993
2019-02-28T00:04:32.256Z,4.835205
2019-02-28T00:05:39.071Z,4.865417
2019-02-28T00:06:48.260Z,4.885559
2019-02-28T00:07:57.762Z,4.855347
2019-02-28T00:09:07.278Z,4.835205
2019-02-28T00:10:16.782Z,4.784851
2019-02-28T00:11:26.287Z,4.744568
2019-02-28T00:12:36.788Z,4.744568
2019-02-28T00:13:47.281Z,4.744568
2019-02-28T00:14:58.570Z,4.744568
2019-02-28T00:16:07.287Z,4.754639
2019-02-28T00:17:16.791Z,4.77478
2019-02-28T00:18:27.295Z,4.815063
2019-02-28T00:19:36.811Z,4.835205
2019-02-28T00:20:46.313Z,4.855347
2019-02-28T00:21:55.817Z,4.855347
2019-02-28T00:23:05.314Z,4.855347
2019-02-28T00:24:14.819Z,4.865417
2019-02-28T00:25:24.355Z,4.885559
2019-02-28T00:26:34.844Z,4.915771
2019-02-28T00:27:45.330Z,4.915771
2019-02-28T00:28:56.950Z,4.935913
2019-02-28T00:30:05.942Z,4.89563
2019-02-28T00:31:15.236Z,4.855347
2019-02-28T00:32:24.745Z,4.77478
2019-02-28T00:33:32.808Z,4.744568
2019-02-28T00:34:42.333Z,4.704285
2019-02-28T00:35:51.834Z,4.704285
2019-02-28T00:37:01.334Z,4.684143
2019-02-28T00:38:10.844Z,4.664001
2019-02-28T00:39:20.348Z,4.603577
2019-02-28T00:40:30.882Z,4.563293
2019-02-28T00:41:44.186Z,4.52301
2019-02-28T00:42:50.712Z,4.482727
2019-02-28T00:43:59.367Z,4.533081
2019-02-28T00:45:08.879Z,4.52301
2019-02-28T00:46:18.387Z,4.502869
2019-02-28T00:47:27.901Z,4.492798
2019-02-28T00:48:37.481Z,4.422302
2019-02-28T00:49:47.047Z,4.382019
2019-02-28T00:50:58.442Z,4.371948
2019-02-28T00:52:07.210Z,4.371948
2019-02-28T00:53:16.808Z,4.351807
2019-02-28T00:54:26.451Z,4.341736
2019-02-28T00:55:36.030Z,4.351807
2019-02-28T00:56:51.367Z,4.351807
2019-02-28T00:57:56.115Z,4.351807
2019-02-28T00:59:05.643Z,4.412231
2019-02-28T01:00:15.222Z,4.442444
2019-02-28T01:01:24.784Z,4.502869
2019-02-28T01:02:34.343Z,4.563293
2019-02-28T01:03:43.911Z,4.583435
2019-02-28T01:04:53.490Z,4.603577
2019-02-28T01:06:04.051Z,4.664001
2019-02-28T01:07:16.121Z,4.684143
2019-02-28T01:08:23.097Z,4.704285
2019-02-28T01:09:32.700Z,4.674072
2019-02-28T01:10:42.334Z,4.704285
2019-02-28T01:11:51.937Z,4.77478
2019-02-28T01:13:01.464Z,4.784851
2019-02-28T01:14:12.025Z,4.754639
2019-02-28T01:15:21.661Z,4.754639
2019-02-28T01:16:31.264Z,4.804993
2019-02-28T01:17:41.971Z,4.804993
2019-02-28T01:18:51.551Z,4.784851
2019-02-28T01:20:01.141Z,4.754639
2019-02-28T01:21:11.696Z,4.744568
2019-02-28T01:22:22.292Z,4.784851
2019-02-28T01:23:31.848Z,4.804993
2019-02-28T01:24:41.404Z,4.815063
2019-02-28T01:25:50.991Z,4.855347
2019-02-28T01:27:00.548Z,4.89563
2019-02-28T01:28:10.122Z,4.956055
2019-02-28T01:29:19.690Z,5.016479
2019-02-28T01:30:29.273Z,5.016479
2019-02-28T01:31:42.511Z,4.996338
2019-02-28T01:32:50.836Z,5.016479
2019-02-28T01:33:59.359Z,5.036621
2019-02-28T01:35:08.390Z,5.016479
2019-02-28T01:36:17.891Z,5.036621
2019-02-28T01:37:27.392Z,5.076904
2019-02-28T01:38:36.899Z,5.177612
2019-02-28T01:39:46.403Z,5.207825
2019-02-28T01:40:55.908Z,5.348816
2019-02-28T01:42:05.419Z,5.409241
2019-02-28T01:43:15.918Z,5.469666
2019-02-28T01:44:26.413Z,5.540161
2019-02-28T01:45:36.918Z,5.640869
2019-02-28T01:46:48.433Z,5.681152
2019-02-28T01:47:55.893Z,5.661011
2019-02-28T01:49:05.401Z,5.640869
2019-02-28T01:50:14.921Z,5.640869
2019-02-28T01:51:24.428Z,5.620728
2019-02-28T01:52:34.918Z,5.610657
2019-02-28T01:53:45.447Z,5.640869
2019-02-28T01:54:54.930Z,5.590515
2019-02-28T01:56:04.453Z,5.570374
2019-02-28T01:57:13.959Z,5.590515
2019-02-28T01:58:23.469Z,5.610657
2019-02-28T01:59:32.972Z,5.590515
2019-02-28T02:00:42.493Z,5.560303
2019-02-28T02:01:51.999Z,5.540161
2019-02-28T02:03:02.494Z,5.479736
2019-02-28T02:04:12.500Z,5.389099
2019-02-28T02:05:21.482Z,5.318604
2019-02-28T02:06:31.031Z,5.248108
2019-02-28T02:07:40.533Z,5.167542
2019-02-28T02:08:50.038Z,5.1474
2019-02-28T02:09:59.538Z,5.107117
2019-02-28T02:11:09.054Z,5.066833
2019-02-28T02:12:18.571Z,5.036621
2019-02-28T02:13:29.061Z,5.046692
2019-02-28T02:14:38.553Z,5.107117
2019-02-28T02:15:50.717Z,5.117188
2019-02-28T02:16:58.195Z,5.117188
2019-02-28T02:18:09.303Z,5.1474
2019-02-28T02:19:18.435Z,5.197754
2019-02-28T02:20:26.902Z,5.197754
2019-02-28T02:21:35.693Z,5.177612
2019-02-28T02:22:45.471Z,5.137329
2019-02-28T02:23:54.711Z,5.046692
2019-02-28T02:25:04.298Z,4.966125
2019-02-28T02:26:13.741Z,4.915771
2019-02-28T02:27:23.244Z,4.865417
2019-02-28T02:28:32.753Z,4.815063
2019-02-28T02:29:42.299Z,4.744568
2019-02-28T02:30:52.169Z,4.674072
2019-02-28T02:32:02.551Z,4.603577
2019-02-28T02:33:14.376Z,4.583435
2019-02-28T02:34:24.240Z,4.563293
2019-02-28T02:35:30.821Z,4.593506
2019-02-28T02:36:41.326Z,4.603577
2019-02-28T02:37:51.817Z,4.553223
2019-02-28T02:39:02.328Z,4.593506
2019-02-28T02:40:12.828Z,4.664001
2019-02-28T02:41:23.332Z,4.734497
2019-02-28T02:42:33.818Z,4.744568
2019-02-28T02:43:44.315Z,4.77478
2019-02-28T02:44:54.830Z,4.815063
2019-02-28T02:46:05.325Z,4.835205
2019-02-28T02:47:15.830Z,4.835205
2019-02-28T02:48:25.335Z,4.835205
2019-02-28T02:49:34.843Z,4.865417
2019-02-28T02:50:44.353Z,4.925842
2019-02-28T02:51:53.880Z,4.986267
2019-02-28T02:53:05.336Z,5.016479
2019-02-28T02:54:17.829Z,5.046692
2019-02-28T02:55:27.535Z,5.046692
2019-02-28T02:56:31.910Z,5.046692
2019-02-28T02:57:42.380Z,5.097046
2019-02-28T02:58:52.857Z,5.117188
2019-02-28T03:00:03.363Z,5.167542
2019-02-28T03:01:13.856Z,5.227966
2019-02-28T03:02:24.419Z,5.227966
2019-02-28T03:03:33.830Z,5.227966
2019-02-28T03:04:44.308Z,5.207825
2019-02-28T03:05:54.800Z,5.197754
2019-02-28T03:07:04.336Z,5.227966
2019-02-28T03:08:13.838Z,5.288391
2019-02-28T03:09:23.355Z,5.318604
2019-02-28T03:10:32.853Z,5.288391
2019-02-28T03:11:42.368Z,5.288391
2019-02-28T03:12:51.880Z,5.298462
2019-02-28T03:14:01.399Z,5.258179
2019-02-28T03:15:10.901Z,5.167542
2019-02-28T03:16:21.421Z,5.097046
2019-02-28T03:17:31.923Z,5.016479
2019-02-28T03:18:42.410Z,4.996338
2019-02-28T03:19:52.909Z,5.036621
2019-02-28T03:21:02.425Z,4.996338
2019-02-28T03:22:12.947Z,4.925842
2019-02-28T03:23:23.445Z,4.925842
2019-02-28T03:24:33.949Z,4.935913
2019-02-28T03:25:43.449Z,4.986267
2019-02-28T03:26:52.956Z,5.117188
2019-02-28T03:28:02.461Z,5.117188
2019-02-28T03:29:11.991Z,5.117188
2019-02-28T03:30:28.250Z,5.177612
2019-02-28T03:31:31.955Z,5.197754
2019-02-28T03:32:42.610Z,5.207825
2019-02-28T03:33:50.961Z,5.167542
2019-02-28T03:35:01.470Z,5.207825
2019-02-28T03:36:10.982Z,5.197754
2019-02-28T03:37:20.469Z,5.177612
2019-02-28T03:38:30.967Z,5.107117
2019-02-28T03:39:40.467Z,5.076904
2019-02-28T03:40:49.975Z,5.066833
2019-02-28T03:41:59.493Z,5.036621
2019-02-28T03:43:08.985Z,5.016479
2019-02-28T03:44:21.226Z,4.986267
2019-02-28T03:45:33.641Z,4.956055
2019-02-28T03:46:37.497Z,4.966125
2019-02-28T03:47:47.979Z,4.996338
2019-02-28T03:48:58.473Z,4.986267
2019-02-28T03:50:08.973Z,4.925842
2019-02-28T03:51:18.484Z,4.885559
2019-02-28T03:52:28.985Z,4.804993
2019-02-28T03:53:39.475Z,4.744568
2019-02-28T03:54:48.989Z,4.714355
2019-02-28T03:55:58.498Z,4.674072
2019-02-28T03:57:08.010Z,4.633789
2019-02-28T03:58:17.531Z,4.593506
2019-02-28T03:59:27.137Z,4.583435
2019-02-28T04:00:36.572Z,4.603577
2019-02-28T04:01:46.539Z,4.664001
2019-02-28T04:02:58.379Z,4.734497
2019-02-28T04:04:10.708Z,4.784851
2019-02-28T04:05:14.597Z,4.885559
2019-02-28T04:06:25.110Z,4.935913
2019-02-28T04:07:35.629Z,5.016479
2019-02-28T04:08:45.130Z,5.016479
2019-02-28T04:09:54.650Z,5.066833
2019-02-28T04:11:04.162Z,5.076904
2019-02-28T04:12:13.672Z,5.036621
2019-02-28T04:13:23.178Z,4.996338
2019-02-28T04:14:33.939Z,4.996338
2019-02-28T04:15:47.303Z,4.996338
2019-02-28T04:16:54.214Z,5.036621
2019-02-28T04:18:06.529Z,5.046692
2019-02-28T04:19:11.677Z,5.097046
2019-02-28T04:20:22.145Z,5.117188
2019-02-28T04:21:32.644Z,5.107117
2019-02-28T04:22:43.142Z,5.076904
2019-02-28T04:23:53.672Z,5.066833
2019-02-28T04:25:03.207Z,5.046692
2019-02-28T04:26:12.712Z,5.076904
2019-02-28T04:27:22.215Z,5.066833
2019-02-28T04:28:31.730Z,5.076904
2019-02-28T04:29:41.256Z,5.117188
2019-02-28T04:30:50.822Z,5.167542
2019-02-28T04:32:00.306Z,5.167542
2019-02-28T04:33:09.811Z,5.197754
2019-02-28T04:34:19.324Z,5.207825
2019-02-28T04:35:28.846Z,5.177612
2019-02-28T04:36:38.353Z,5.1474
2019-02-28T04:37:47.868Z,5.1474
2019-02-28T04:38:57.391Z,5.117188
2019-02-28T04:40:06.894Z,5.097046
2019-02-28T04:41:16.401Z,5.097046
2019-02-28T04:42:25.902Z,5.046692
2019-02-28T04:43:36.399Z,4.956055
2019-02-28T04:44:45.902Z,4.915771
2019-02-28T04:45:57.599Z,4.855347
2019-02-28T04:47:06.749Z,4.835205
2019-02-28T04:48:14.686Z,4.855347
2019-02-28T04:49:23.880Z,4.89563
2019-02-28T04:50:33.404Z,4.915771
2019-02-28T04:51:42.904Z,5.016479
2019-02-28T04:52:52.422Z,5.046692
2019-02-28T04:54:01.924Z,5.046692
2019-02-28T04:55:11.448Z,5.066833
2019-02-28T04:56:20.950Z,5.097046
2019-02-28T04:57:30.459Z,5.107117
2019-02-28T04:58:39.968Z,5.107117
2019-02-28T04:59:49.505Z,5.097046
2019-02-28T05:00:59.011Z,5.076904
2019-02-28T05:02:09.513Z,5.076904
2019-02-28T05:03:20.005Z,5.066833
2019-02-28T05:04:29.486Z,5.076904
2019-02-28T05:05:38.992Z,5.107117
2019-02-28T05:06:48.527Z,5.107117
2019-02-28T05:07:58.010Z,5.117188
2019-02-28T05:09:07.493Z,5.137329
2019-02-28T05:10:19.188Z,5.117188
2019-02-28T05:11:27.329Z,5.137329
2019-02-28T05:12:36.157Z,5.107117
2019-02-28T05:13:48.680Z,5.066833
2019-02-28T05:14:55.205Z,5.066833
2019-02-28T05:16:04.436Z,4.986267
2019-02-28T05:17:13.921Z,4.925842
2019-02-28T05:18:23.411Z,4.89563
2019-02-28T05:19:35.689Z,4.885559
2019-02-28T05:20:45.862Z,4.855347
2019-02-28T05:21:53.406Z,4.865417
2019-02-28T05:23:02.573Z,4.915771
2019-02-28T05:24:10.909Z,4.925842
2019-02-28T05:25:20.430Z,4.935913
2019-02-28T05:26:29.944Z,4.925842
2019-02-28T05:27:39.452Z,4.925842
2019-02-28T05:28:48.954Z,4.915771
2019-02-28T05:29:58.458Z,4.885559
2019-02-28T05:31:07.983Z,4.89563
2019-02-28T05:32:17.486Z,4.865417
2019-02-28T05:33:26.993Z,4.865417
2019-02-28T05:34:36.499Z,4.835205
2019-02-28T05:35:47.009Z,4.835205
2019-02-28T05:36:57.515Z,4.885559
2019-02-28T05:38:07.020Z,4.915771
2019-02-28T05:39:16.526Z,4.925842
2019-02-28T05:40:26.036Z,4.925842
2019-02-28T05:41:36.262Z,4.935913
2019-02-28T05:42:46.050Z,4.966125
2019-02-28T05:43:56.534Z,4.935913
2019-02-28T05:45:07.021Z,4.956055
2019-02-28T05:46:16.525Z,4.935913
2019-02-28T05:47:26.125Z,4.935913
2019-02-28T05:48:38.592Z,4.925842
2019-02-28T05:49:46.001Z,4.915771
2019-02-28T05:50:55.522Z,4.915771
2019-02-28T05:52:05.027Z,4.935913
2019-02-28T05:53:14.527Z,4.956055
2019-02-28T05:54:24.029Z,4.935913
2019-02-28T05:55:33.570Z,4.935913
2019-02-28T05:56:43.072Z,4.935913
2019-02-28T05:57:52.578Z,4.935913
2019-02-28T05:59:02.093Z,4.956055
2019-02-28T06:00:11.595Z,4.966125
2019-02-28T06:01:21.115Z,4.986267
2019-02-28T06:02:30.641Z,4.966125
2019-02-28T06:03:40.155Z,4.956055
2019-02-28T06:04:49.653Z,4.956055
2019-02-28T06:05:59.177Z,4.966125
2019-02-28T06:07:09.412Z,4.986267
2019-02-28T06:08:18.186Z,4.986267
2019-02-28T06:09:27.693Z,5.016479
2019-02-28T06:10:37.197Z,5.036621
2019-02-28T06:11:46.713Z,5.016479
2019-02-28T06:12:56.233Z,5.046692
2019-02-28T06:14:05.748Z,5.066833
2019-02-28T06:15:15.261Z,5.076904
2019-02-28T06:16:24.776Z,5.076904
2019-02-28T06:17:34.291Z,5.076904
2019-02-28T06:18:43.797Z,5.066833
2019-02-28T06:19:53.295Z,5.097046
2019-02-28T06:21:02.811Z,5.107117
2019-02-28T06:22:12.335Z,5.1474
2019-02-28T06:23:21.835Z,5.167542
2019-02-28T06:24:31.339Z,5.197754
2019-02-28T06:25:40.848Z,5.248108
2019-02-28T06:26:50.375Z,5.318604
2019-02-28T06:27:59.895Z,5.348816
2019-02-28T06:29:09.397Z,5.358887
2019-02-28T06:30:18.918Z,5.379028
2019-02-28T06:31:28.440Z,5.409241
2019-02-28T06:32:37.948Z,5.459595
2019-02-28T06:33:47.465Z,5.509949
2019-02-28T06:34:56.964Z,5.540161
2019-02-28T06:36:06.485Z,5.620728
2019-02-28T06:37:16.002Z,5.661011
2019-02-28T06:38:25.493Z,5.721436
2019-02-28T06:39:34.996Z,5.761719
2019-02-28T06:40:44.512Z,5.822144
2019-02-28T06:41:54.248Z,5.862427
2019-02-28T06:43:03.756Z,5.90271
2019-02-28T06:44:13.308Z,5.932922
2019-02-28T06:45:23.808Z,5.993347
2019-02-28T06:46:34.339Z,6.043701
2019-02-28T06:47:47.887Z,6.094055
2019-02-28T06:48:53.310Z,6.194763
2019-02-28T06:50:03.798Z,6.265259
2019-02-28T06:51:16.718Z,6.355896
2019-02-28T06:52:25.188Z,6.436462
2019-02-28T06:53:33.947Z,6.506958
2019-02-28T06:54:42.786Z,6.617737
2019-02-28T06:55:52.299Z,6.698303
2019-02-28T06:57:01.816Z,6.809082
2019-02-28T06:58:11.324Z,6.919861
2019-02-28T06:59:20.967Z,7.000427
2019-02-28T07:00:30.478Z,7.101135
2019-02-28T07:01:40.000Z,7.171631
2019-02-28T07:02:50.187Z,7.232056
2019-02-28T07:03:59.005Z,7.322693
2019-02-28T07:05:08.522Z,7.403259
2019-02-28T07:06:18.026Z,7.564392
2019-02-28T07:07:27.550Z,7.745667
2019-02-28T07:08:37.048Z,7.896729
2019-02-28T07:09:46.555Z,8.027649
2019-02-28T07:10:56.176Z,8.188782
2019-02-28T07:12:05.698Z,8.370056
2019-02-28T07:13:15.190Z,8.521118
2019-02-28T07:14:24.707Z,8.641968
2019-02-28T07:15:34.201Z,8.702393
2019-02-28T07:16:43.733Z,8.79303
2019-02-28T07:17:53.239Z,8.954163
2019-02-28T07:19:02.740Z,9.064941
2019-02-28T07:20:12.244Z,9.095154
2019-02-28T07:21:21.757Z,9.125366
2019-02-28T07:22:31.274Z,9.226074
2019-02-28T07:23:40.773Z,9.316711
2019-02-28T07:24:50.285Z,9.397278
2019-02-28T07:25:59.799Z,9.457703
2019-02-28T07:27:09.323Z,9.538269
2019-02-28T07:28:18.823Z,9.659119
2019-02-28T07:29:28.340Z,9.840393
2019-02-28T07:30:37.841Z,9.981384
2019-02-28T07:31:47.352Z,10.092163
2019-02-28T07:32:57.843Z,10.162659
2019-02-28T07:34:08.341Z,10.233154
2019-02-28T07:35:18.837Z,10.374146
2019-02-28T07:36:29.334Z,10.484924
2019-02-28T07:37:38.845Z,10.585632
2019-02-28T07:38:48.342Z,10.706482
2019-02-28T07:39:58.836Z,10.857544
2019-02-28T07:41:08.375Z,10.998535
2019-02-28T07:42:17.881Z,11.099243
2019-02-28T07:43:27.379Z,11.139526
2019-02-28T07:44:38.032Z,11.270447
2019-02-28T07:45:46.395Z,11.43158
2019-02-28T07:46:55.906Z,11.43158
2019-02-28T07:48:05.414Z,11.502075
2019-02-28T07:49:14.921Z,11.622925
2019-02-28T07:50:25.458Z,11.723633
2019-02-28T07:51:34.973Z,11.864624
2019-02-28T07:52:44.478Z,11.985474
2019-02-28T07:53:53.989Z,12.055969
2019-02-28T07:55:03.495Z,12.166748
2019-02-28T07:56:13.016Z,12.287598
2019-02-28T07:57:22.565Z,12.489014
2019-02-28T07:58:33.395Z,12.599792
2019-02-28T07:59:42.647Z,12.670288
2019-02-28T08:00:52.598Z,12.781067
2019-02-28T08:02:03.154Z,12.851562
2019-02-28T08:03:11.153Z,13.002625
2019-02-28T08:04:19.522Z,13.113403
2019-02-28T08:05:30.887Z,13.254395
2019-02-28T08:06:39.185Z,13.405457
2019-02-28T08:07:51.774Z,13.556519
2019-02-28T08:08:57.518Z,13.667297
2019-02-28T08:10:06.999Z,13.707581
2019-02-28T08:11:19.413Z,13.808289
2019-02-28T08:12:27.391Z,13.888855
2019-02-28T08:13:37.713Z,13.94928
2019-02-28T08:14:47.005Z,14.029846
2019-02-28T08:15:56.382Z,14.110413
2019-02-28T08:17:05.389Z,14.321899
2019-02-28T08:18:15.746Z,14.372253
2019-02-28T08:19:26.299Z,14.553528
2019-02-28T08:20:33.808Z,14.694519
2019-02-28T08:21:46.728Z,14.70459
2019-02-28T08:22:51.440Z,14.724731
2019-02-28T08:24:02.436Z,14.70459
2019-02-28T08:25:10.405Z,14.855652
2019-02-28T08:26:19.918Z,14.916077
2019-02-28T08:27:29.429Z,15.036926
2019-02-28T08:28:38.936Z,15.036926
2019-02-28T08:29:48.436Z,15.057068
2019-02-28T08:30:57.939Z,15.057068
2019-02-28T08:32:08.174Z,15.097351
2019-02-28T08:33:17.168Z,15.147705
2019-02-28T08:34:26.460Z,15.107422
2019-02-28T08:35:35.995Z,15.20813
2019-02-28T08:36:46.874Z,15.218201
2019-02-28T08:37:56.841Z,15.238342
2019-02-28T08:39:06.026Z,15.369263
2019-02-28T08:40:15.579Z,15.429688
2019-02-28T08:41:25.686Z,15.510254
2019-02-28T08:42:38.390Z,15.429688
2019-02-28T08:43:44.532Z,15.399475
2019-02-28T08:44:57.704Z,15.469971
2019-02-28T08:46:02.789Z,15.490112
2019-02-28T08:47:12.096Z,15.550537
2019-02-28T08:48:22.583Z,15.671387
2019-02-28T08:49:33.057Z,15.751953
2019-02-28T08:50:43.567Z,15.862732
2019-02-28T08:51:54.073Z,15.751953
2019-02-28T08:53:04.570Z,15.792236
2019-02-28T08:54:15.057Z,15.762024
2019-02-28T08:55:28.511Z,15.701599
2019-02-28T08:56:35.054Z,15.731812
2019-02-28T08:57:54.141Z,15.83252
2019-02-28T08:58:56.031Z,15.862732
2019-02-28T09:00:06.589Z,15.83252
2019-02-28T09:01:16.106Z,15.83252
2019-02-28T09:02:25.622Z,15.953369
2019-02-28T09:03:35.131Z,15.913086
2019-02-28T09:04:44.860Z,15.943298
2019-02-28T09:05:54.110Z,15.913086
2019-02-28T09:07:04.670Z,15.923157
2019-02-28T09:08:15.157Z,15.953369
2019-02-28T09:09:25.653Z,16.023865
2019-02-28T09:10:37.461Z,16.124573
2019-02-28T09:11:46.614Z,16.225281
2019-02-28T09:12:57.108Z,16.356201
2019-02-28T09:14:07.601Z,16.507263
2019-02-28T09:15:18.132Z,16.557617
2019-02-28T09:16:28.658Z,16.406555
2019-02-28T09:17:39.160Z,16.356201
2019-02-28T09:18:48.731Z,16.487122
2019-02-28T09:19:59.198Z,16.386414
2019-02-28T09:21:09.698Z,16.376343
2019-02-28T09:22:20.204Z,16.527405
2019-02-28T09:23:29.688Z,16.688538
2019-02-28T09:24:39.170Z,16.708679
2019-02-28T09:25:48.651Z,16.809387
2019-02-28T09:26:58.157Z,16.97052
2019-02-28T09:28:10.143Z,16.990662
2019-02-28T09:29:18.263Z,16.990662
2019-02-28T09:30:29.606Z,17.061157
2019-02-28T09:31:38.548Z,17.22229
2019-02-28T09:32:48.139Z,17.192078
2019-02-28T09:33:55.367Z,17.161865
2019-02-28T09:35:05.726Z,16.960449
2019-02-28T09:36:20.130Z,16.910095
2019-02-28T09:37:29.456Z,16.708679
2019-02-28T09:38:34.077Z,16.869812
2019-02-28T09:39:44.564Z,16.960449
2019-02-28T09:40:55.043Z,16.910095
2019-02-28T09:42:05.525Z,17.111511
2019-02-28T09:43:16.023Z,17.161865
2019-02-28T09:44:25.525Z,17.333069
2019-02-28T09:45:35.019Z,17.443848
2019-02-28T09:46:47.397Z,17.453918
2019-02-28T09:47:53.998Z,17.484131
2019-02-28T09:49:05.464Z,17.574768
2019-02-28T09:50:13.957Z,17.544556
2019-02-28T09:51:24.436Z,17.524414
2019-02-28T09:52:33.940Z,17.695618
2019-02-28T09:53:43.424Z,17.776184
2019-02-28T09:54:52.918Z,17.85675
2019-02-28T09:56:02.405Z,17.776184
2019-02-28T09:57:11.888Z,17.756042
2019-02-28T09:58:21.392Z,17.715759
2019-02-28T09:59:30.878Z,17.786255
2019-02-28T10:00:43.169Z,17.866821
2019-02-28T10:01:50.834Z,17.756042
2019-02-28T10:03:01.324Z,17.665405
2019-02-28T10:04:10.817Z,17.756042
2019-02-28T10:05:20.322Z,17.635193
2019-02-28T10:06:29.825Z,17.756042
2019-02-28T10:07:39.331Z,17.85675
2019-02-28T10:08:48.831Z,17.897034
2019-02-28T10:09:58.335Z,18.068237
2019-02-28T10:11:07.837Z,18.128662
2019-02-28T10:12:17.341Z,18.219299
2019-02-28T10:13:26.908Z,18.380432
2019-02-28T10:14:36.409Z,18.622131
2019-02-28T10:15:45.922Z,18.35022
2019-02-28T10:16:55.422Z,18.219299
2019-02-28T10:18:05.304Z,18.219299
2019-02-28T10:19:14.443Z,18.279724
2019-02-28T10:20:26.903Z,18.400574
2019-02-28T10:21:36.192Z,18.279724
2019-02-28T10:22:44.255Z,18.048096
2019-02-28T10:23:56.837Z,17.967529
2019-02-28T10:25:03.538Z,17.826538
2019-02-28T10:26:14.246Z,17.897034
2019-02-28T10:27:23.224Z,18.189087
2019-02-28T10:28:31.414Z,18.450928
2019-02-28T10:29:41.795Z,18.370361
2019-02-28T10:30:50.890Z,18.108521
2019-02-28T10:31:59.904Z,17.997742
2019-02-28T10:33:09.404Z,17.997742
2019-02-28T10:34:18.885Z,18.199158
2019-02-28T10:35:28.367Z,18.521423
2019-02-28T10:36:38.839Z,18.551636
2019-02-28T10:37:49.329Z,18.682556
2019-02-28T10:38:59.810Z,18.803406
2019-02-28T10:40:10.289Z,19.10553
2019-02-28T10:41:19.768Z,19.065247
2019-02-28T10:42:30.252Z,19.176025
2019-02-28T10:43:40.764Z,19.135742
2019-02-28T10:44:51.251Z,18.883972
2019-02-28T10:46:00.758Z,18.863831
2019-02-28T10:47:10.254Z,18.813477
2019-02-28T10:48:19.775Z,18.622131
2019-02-28T10:49:29.277Z,18.521423
2019-02-28T10:50:38.781Z,18.491211
2019-02-28T10:51:50.306Z,18.501282
2019-02-28T10:52:57.794Z,18.430786
2019-02-28T10:54:07.271Z,18.380432
2019-02-28T10:55:19.351Z,18.430786
2019-02-28T10:56:26.330Z,18.380432
2019-02-28T10:57:37.175Z,18.450928
2019-02-28T10:58:47.098Z,18.471069
2019-02-28T10:59:55.114Z,18.410645
2019-02-28T11:01:07.915Z,18.340149
2019-02-28T11:02:18.924Z,18.410645
2019-02-28T11:03:23.287Z,18.521423
2019-02-28T11:04:33.756Z,18.370361
2019-02-28T11:05:44.245Z,18.551636
2019-02-28T11:06:54.728Z,18.632202
2019-02-28T11:08:04.217Z,18.531494
2019-02-28T11:09:14.697Z,18.521423
2019-02-28T11:10:25.224Z,18.531494
2019-02-28T11:11:35.696Z,18.440857
2019-02-28T11:12:46.176Z,18.450928
2019-02-28T11:13:56.682Z,18.450928
2019-02-28T11:15:06.184Z,18.551636
2019-02-28T11:16:15.661Z,18.60199
2019-02-28T11:17:25.185Z,18.400574
2019-02-28T11:18:36.435Z,18.440857
2019-02-28T11:19:44.137Z,18.531494
2019-02-28T11:20:53.627Z,18.521423
2019-02-28T11:22:04.729Z,18.632202
2019-02-28T11:23:14.759Z,18.843689
2019-02-28T11:24:23.642Z,18.803406
2019-02-28T11:25:34.437Z,18.773193
2019-02-28T11:26:41.274Z,18.934326
2019-02-28T11:27:53.667Z,18.894043
2019-02-28T11:29:02.783Z,19.065247
2019-02-28T11:30:10.064Z,19.206238
2019-02-28T11:31:19.943Z,19.065247
2019-02-28T11:32:29.310Z,19.085388
2019-02-28T11:33:39.500Z,19.206238
2019-02-28T11:34:48.636Z,18.833618
2019-02-28T11:35:58.802Z,18.73291
2019-02-28T11:37:08.875Z,18.682556
2019-02-28T11:38:20.197Z,18.833618
2019-02-28T11:39:27.515Z,18.954468
2019-02-28T11:40:36.101Z,18.894043
2019-02-28T11:41:45.582Z,19.135742
2019-02-28T11:42:55.067Z,18.964539
2019-02-28T11:44:04.584Z,19.10553
2019-02-28T11:45:14.076Z,18.813477
2019-02-28T11:46:24.551Z,18.591919
2019-02-28T11:47:35.041Z,18.652344
2019-02-28T11:48:44.551Z,18.702698
2019-02-28T11:49:55.044Z,18.712769
2019-02-28T11:51:05.526Z,18.934326
2019-02-28T11:52:15.986Z,19.075317
2019-02-28T11:53:25.536Z,18.954468
2019-02-28T11:54:36.031Z,19.145813
2019-02-28T11:55:46.506Z,19.327087
2019-02-28T11:56:56.008Z,19.397583
2019-02-28T11:58:06.482Z,19.659424
2019-02-28T11:59:16.994Z,19.941406
2019-02-28T12:00:26.481Z,20.092468
2019-02-28T12:01:36.957Z,19.86084
2019-02-28T12:02:53.197Z,20.293884
2019-02-28T12:03:57.938Z,20.132751
2019-02-28T12:05:07.444Z,19.99176
2019-02-28T12:06:16.926Z,19.770203
2019-02-28T12:07:27.411Z,19.891052
2019-02-28T12:08:36.907Z,20.314026
2019-02-28T12:09:46.411Z,20.253601
2019-02-28T12:10:58.308Z,20.293884
2019-02-28T12:12:07.235Z,20.515442
2019-02-28T12:13:16.409Z,20.36438
2019-02-28T12:14:26.329Z,20.213318
2019-02-28T12:15:37.947Z,20.142822
2019-02-28T12:16:44.343Z,20.001831
2019-02-28T12:17:54.821Z,20.374451
2019-02-28T12:19:05.321Z,20.223389
2019-02-28T12:20:15.800Z,20.344238
2019-02-28T12:21:26.278Z,20.434875
2019-02-28T12:22:36.771Z,20.475159
2019-02-28T12:23:47.269Z,20.4953
2019-02-28T12:24:57.749Z,20.162964
2019-02-28T12:26:08.253Z,20.102539
2019-02-28T12:27:18.735Z,20.293884
2019-02-28T12:28:29.219Z,20.414734
2019-02-28T12:29:39.720Z,20.626221
2019-02-28T12:30:50.197Z,20.918274
2019-02-28T12:32:00.677Z,20.666504
2019-02-28T12:33:10.166Z,21.139832
2019-02-28T12:34:20.662Z,21.139832
2019-02-28T12:35:33.567Z,21.582947
2019-02-28T12:36:41.614Z,21.552734
2019-02-28T12:37:53.845Z,21.482239
2019-02-28T12:39:02.244Z,21.401672
2019-02-28T12:40:10.951Z,21.552734
2019-02-28T12:41:21.552Z,21.452026
2019-02-28T12:42:31.601Z,21.723938
2019-02-28T12:43:40.501Z,22.25769
2019-02-28T12:44:49.006Z,21.945496
2019-02-28T12:45:59.941Z,22.015991
2019-02-28T12:47:07.382Z,21.975708
2019-02-28T12:48:16.598Z,21.975708
2019-02-28T12:49:27.681Z,21.925354
2019-02-28T12:50:36.661Z,21.582947
2019-02-28T12:51:46.165Z,21.462097
2019-02-28T12:52:55.679Z,21.462097
2019-02-28T12:54:05.183Z,21.62323
2019-02-28T12:55:14.697Z,21.885071
2019-02-28T12:56:24.189Z,21.300964
2019-02-28T12:57:33.690Z,21.25061
2019-02-28T12:58:43.210Z,21.62323
2019-02-28T12:59:52.739Z,21.703796
2019-02-28T13:01:02.252Z,21.955566
2019-02-28T13:02:11.745Z,21.482239
2019-02-28T13:03:21.275Z,21.582947
2019-02-28T13:04:32.480Z,21.300964
2019-02-28T13:05:40.238Z,21.703796
2019-02-28T13:06:50.713Z,22.167053
2019-02-28T13:08:00.221Z,21.925354
2019-02-28T13:09:09.731Z,22.056274
2019-02-28T13:10:19.214Z,21.804504
2019-02-28T13:11:29.689Z,22.036133
2019-02-28T13:12:39.184Z,21.723938
2019-02-28T13:13:49.657Z,21.50238
2019-02-28T13:15:00.401Z,21.37146
2019-02-28T13:16:09.671Z,21.804504
2019-02-28T13:17:20.166Z,22.297974
2019-02-28T13:18:30.660Z,22.24762
2019-02-28T13:19:40.164Z,21.854858
2019-02-28T13:20:49.671Z,21.975708
2019-02-28T13:21:59.182Z,21.734009
2019-02-28T13:23:08.686Z,21.975708
2019-02-28T13:24:18.187Z,22.076416
2019-02-28T13:25:27.710Z,22.167053
2019-02-28T13:26:37.205Z,22.096558
2019-02-28T13:27:46.708Z,22.106628
2019-02-28T13:28:57.292Z,22.227478
2019-02-28T13:30:10.306Z,22.479248